createdAt,value
2022-12-17T00:01:43.402Z,63.00
2022-12-17T00:04:28.851Z,63.17
2022-12-17T00:07:15.381Z,64.93
2022-12-17T00:10:00.786Z,63.63
2022-12-17T00:12:57.631Z,60.90
2022-12-17T00:15:45.827Z,60.90
2022-12-17T00:18:32.749Z,61.80
2022-12-17T00:21:19.319Z,60.73
2022-12-17T00:24:06.225Z,59.30
2022-12-17T00:26:52.165Z,60.00
2022-12-17T00:29:38.220Z,63.43
2022-12-17T00:32:24.697Z,60.77
2022-12-17T00:35:11.455Z,60.90
2022-12-17T00:37:56.937Z,61.97
2022-12-17T00:40:42.554Z,61.30
2022-12-17T00:43:29.990Z,60.63
2022-12-17T00:46:15.942Z,64.23
2022-12-17T00:49:13.323Z,62.10
2022-12-17T00:52:00.464Z,59.10
2022-12-17T00:54:45.921Z,57.60
2022-12-17T00:57:31.346Z,56.40
2022-12-17T01:00:16.843Z,57.53
2022-12-17T01:03:02.290Z,60.60
2022-12-17T01:05:48.025Z,60.30
2022-12-17T01:08:34.801Z,61.50
2022-12-17T01:11:21.015Z,57.43
2022-12-17T01:14:07.117Z,56.63
2022-12-17T01:16:53.170Z,57.13
2022-12-17T01:19:42.039Z,57.30
2022-12-17T01:22:27.763Z,56.90
2022-12-17T01:25:15.004Z,55.13
2022-12-17T01:28:01.591Z,53.27
2022-12-17T01:30:47.621Z,51.40
2022-12-17T01:33:33.220Z,53.80
2022-12-17T01:36:15.524Z,53.67
2022-12-17T01:39:01.619Z,54.07
2022-12-17T01:41:48.807Z,53.10
2022-12-17T01:45:04.991Z,53.50
2022-12-17T01:47:53.556Z,53.40
2022-12-17T01:50:43.925Z,53.40
2022-12-17T01:53:30.433Z,50.57
2022-12-17T01:56:16.846Z,50.33
2022-12-17T01:59:04.010Z,51.20
2022-12-17T02:01:49.491Z,49.90
2022-12-17T02:04:35.183Z,50.33
2022-12-17T02:08:02.586Z,50.93
2022-12-17T02:10:58.140Z,51.23
2022-12-17T02:13:49.283Z,49.10
2022-12-17T02:16:40.044Z,48.20
2022-12-17T02:19:39.935Z,48.30
2022-12-17T02:22:32.973Z,46.50
2022-12-17T02:25:25.737Z,48.20
2022-12-17T02:28:12.445Z,45.03
2022-12-17T02:30:58.334Z,44.23
2022-12-17T02:33:44.830Z,43.57
2022-12-17T02:36:30.291Z,44.53
2022-12-17T02:39:15.797Z,45.37
2022-12-17T02:42:06.067Z,45.60
2022-12-17T02:44:54.067Z,46.80
2022-12-17T02:47:41.533Z,47.10
2022-12-17T02:50:28.951Z,46.23
2022-12-17T02:53:18.021Z,44.20
2022-12-17T02:56:03.608Z,42.43
2022-12-17T02:58:49.197Z,42.87
2022-12-17T03:01:36.527Z,42.60
2022-12-17T03:04:22.349Z,43.93
2022-12-17T03:07:08.251Z,43.60
2022-12-17T03:09:54.009Z,44.50
2022-12-17T03:12:39.281Z,46.47
2022-12-17T03:15:25.484Z,46.63
2022-12-17T03:18:13.015Z,43.83
2022-12-17T03:20:58.383Z,44.70
2022-12-17T03:23:43.957Z,45.00
2022-12-17T03:26:29.330Z,46.33
2022-12-17T03:29:14.748Z,47.90
2022-12-17T03:32:00.240Z,47.50
2022-12-17T03:34:47.264Z,46.07
2022-12-17T03:37:32.738Z,46.67
2022-12-17T03:40:23.777Z,47.93
2022-12-17T03:43:09.218Z,49.27
2022-12-17T03:45:55.807Z,45.43
2022-12-17T03:48:41.478Z,44.23
2022-12-17T03:51:28.429Z,47.00
2022-12-17T03:54:14.047Z,45.00
2022-12-17T03:56:59.608Z,45.17
2022-12-17T03:59:45.240Z,42.43
2022-12-17T04:02:30.884Z,43.50
2022-12-17T04:05:20.096Z,44.40
2022-12-17T04:08:07.645Z,47.57
2022-12-17T04:10:53.171Z,45.00
2022-12-17T04:13:41.254Z,48.30
2022-12-17T04:16:27.369Z,47.23
2022-12-17T04:19:13.405Z,48.23
2022-12-17T04:21:58.895Z,49.20
2022-12-17T04:24:46.028Z,48.47
2022-12-17T04:27:31.868Z,46.90
2022-12-17T04:30:17.240Z,46.87
2022-12-17T04:33:02.954Z,48.07
2022-12-17T04:35:48.336Z,49.13
2022-12-17T04:38:34.051Z,49.73
2022-12-17T04:41:21.273Z,49.27
2022-12-17T04:44:06.970Z,50.20
2022-12-17T04:46:53.139Z,50.50
2022-12-17T04:49:38.605Z,48.53
2022-12-17T04:52:24.390Z,49.33
2022-12-17T04:55:09.863Z,49.27
2022-12-17T04:57:56.929Z,49.00
2022-12-17T05:00:51.028Z,48.30
2022-12-17T05:03:37.094Z,51.80
2022-12-17T05:06:23.354Z,50.83
2022-12-17T05:09:08.862Z,51.97
2022-12-17T05:11:54.280Z,52.30
2022-12-17T05:14:37.654Z,53.13
2022-12-17T05:17:23.445Z,55.53
2022-12-17T05:20:09.273Z,51.90
2022-12-17T05:22:54.601Z,54.77
2022-12-17T05:25:40.026Z,52.27
2022-12-17T05:28:25.330Z,51.87
2022-12-17T05:31:13.671Z,53.73
2022-12-17T05:33:59.461Z,52.60
2022-12-17T05:36:45.086Z,52.63
2022-12-17T05:39:30.765Z,53.70
2022-12-17T05:42:16.286Z,52.23
2022-12-17T05:45:01.633Z,51.43
2022-12-17T05:47:48.818Z,52.90
2022-12-17T05:50:34.737Z,54.33
2022-12-17T05:53:21.604Z,53.30
2022-12-17T05:56:11.058Z,51.33
2022-12-17T05:58:57.250Z,49.33
2022-12-17T06:01:42.781Z,50.80
2022-12-17T06:04:30.216Z,51.27
2022-12-17T06:07:15.931Z,54.00
2022-12-17T06:10:01.544Z,52.03
2022-12-17T06:12:47.026Z,51.50
2022-12-17T06:15:32.563Z,50.87
2022-12-17T06:18:18.144Z,52.20
2022-12-17T06:21:04.942Z,53.63
2022-12-17T06:23:50.411Z,52.93
2022-12-17T06:26:50.010Z,52.90
2022-12-17T06:29:35.513Z,54.33
2022-12-17T06:32:20.996Z,53.60
2022-12-17T06:35:06.406Z,49.73
2022-12-17T06:37:53.564Z,49.10
2022-12-17T06:40:39.170Z,50.70
2022-12-17T06:43:39.198Z,50.90
2022-12-17T06:46:24.760Z,49.63
2022-12-17T06:49:10.311Z,51.10
2022-12-17T06:51:55.781Z,50.17
2022-12-17T06:54:42.819Z,49.87
2022-12-17T06:57:28.394Z,48.07
2022-12-17T07:00:13.889Z,48.63
2022-12-17T07:02:59.926Z,50.00
2022-12-17T07:05:45.661Z,51.67
2022-12-17T07:08:31.131Z,53.30
2022-12-17T07:11:19.689Z,55.97
2022-12-17T07:14:05.302Z,54.50
2022-12-17T07:16:51.061Z,56.03
2022-12-17T07:19:37.653Z,55.33
2022-12-17T07:22:23.162Z,53.83
2022-12-17T07:25:08.797Z,54.20
2022-12-17T07:27:55.778Z,53.00
2022-12-17T07:30:56.214Z,51.60
2022-12-17T07:33:41.832Z,53.83
2022-12-17T07:36:27.394Z,51.30
2022-12-17T07:39:12.939Z,50.07
2022-12-17T07:41:58.367Z,47.60
2022-12-17T07:44:45.217Z,48.57
2022-12-17T07:47:30.977Z,48.57
2022-12-17T07:50:16.495Z,49.97
2022-12-17T07:53:02.178Z,45.83
2022-12-17T07:55:47.628Z,44.37
2022-12-17T07:58:33.297Z,43.83
2022-12-17T08:01:20.797Z,46.37
2022-12-17T08:04:06.801Z,46.77
2022-12-17T08:06:56.643Z,43.87
2022-12-17T08:09:45.420Z,46.07
2022-12-17T08:12:31.394Z,47.10
2022-12-17T08:15:28.584Z,46.20
2022-12-17T08:18:26.367Z,44.80
2022-12-17T08:21:12.241Z,46.50
2022-12-17T08:23:57.911Z,51.92
2022-12-17T08:26:47.789Z,51.07
2022-12-17T08:29:33.916Z,49.70
2022-12-17T08:32:19.385Z,51.53
2022-12-17T08:35:06.022Z,47.70
2022-12-17T08:37:59.927Z,47.20
2022-12-17T08:40:45.464Z,47.93
2022-12-17T08:43:31.695Z,46.63
2022-12-17T08:46:17.246Z,48.90
2022-12-17T08:49:03.005Z,51.43
2022-12-17T08:51:49.808Z,49.80
2022-12-17T08:54:35.367Z,49.57
2022-12-17T08:57:31.386Z,50.70
2022-12-17T09:00:17.936Z,51.77
2022-12-17T09:03:03.841Z,50.60
2022-12-17T09:05:49.654Z,48.03
2022-12-17T09:08:36.486Z,47.60
2022-12-17T09:11:22.094Z,48.13
2022-12-17T09:14:07.413Z,45.70
2022-12-17T09:16:53.223Z,46.63
2022-12-17T09:19:39.228Z,45.00
2022-12-17T09:22:25.022Z,46.07
2022-12-17T09:25:11.933Z,47.30
2022-12-17T09:27:57.380Z,48.53
2022-12-17T09:30:48.148Z,50.40
2022-12-17T09:33:35.017Z,48.77
2022-12-17T09:36:22.576Z,46.50
2022-12-17T09:39:08.043Z,45.87
2022-12-17T09:42:04.421Z,43.60
2022-12-17T09:45:02.221Z,46.53
2022-12-17T09:48:00.651Z,43.63
2022-12-17T09:50:46.753Z,46.83
2022-12-17T09:53:40.009Z,44.80
2022-12-17T09:56:28.591Z,42.07
2022-12-17T09:59:15.500Z,44.70
2022-12-17T10:02:01.417Z,44.27
2022-12-17T10:04:52.561Z,45.80
2022-12-17T10:07:37.901Z,47.70
2022-12-17T10:10:34.758Z,46.10
2022-12-17T10:13:20.691Z,43.00
2022-12-17T10:16:07.731Z,44.77
2022-12-17T10:18:53.366Z,41.83
2022-12-17T10:21:42.545Z,42.67
2022-12-17T10:24:29.586Z,43.67
2022-12-17T10:27:15.675Z,45.33
2022-12-17T10:30:14.587Z,44.57
2022-12-17T10:33:01.222Z,44.73
2022-12-17T10:35:55.353Z,43.77
2022-12-17T10:38:43.243Z,43.77
2022-12-17T10:41:41.770Z,44.60
2022-12-17T10:44:44.475Z,40.97
2022-12-17T10:47:31.525Z,39.37
2022-12-17T10:50:20.232Z,39.67
2022-12-17T10:53:07.008Z,38.77
2022-12-17T10:55:53.892Z,39.30
2022-12-17T10:58:41.969Z,40.20
2022-12-17T11:01:31.554Z,39.50
2022-12-17T11:04:17.481Z,41.27
2022-12-17T11:07:07.679Z,41.67
2022-12-17T11:10:03.703Z,42.93
2022-12-17T11:12:57.910Z,39.20
2022-12-17T11:15:49.215Z,38.30
2022-12-17T11:18:39.270Z,38.13
2022-12-17T11:21:29.313Z,35.50
2022-12-17T11:24:22.434Z,35.70
2022-12-17T11:27:12.408Z,36.20
2022-12-17T11:29:57.788Z,36.20
2022-12-17T11:33:10.462Z,33.93
2022-12-17T11:36:05.467Z,34.70
2022-12-17T11:38:56.975Z,34.93
2022-12-17T11:41:55.022Z,32.77
2022-12-17T11:44:54.065Z,31.87
2022-12-17T11:47:54.912Z,36.73
2022-12-17T11:50:47.610Z,34.93
2022-12-17T11:54:04.912Z,35.77
2022-12-17T11:56:59.818Z,34.73
2022-12-17T11:59:53.442Z,33.87
2022-12-17T12:02:54.010Z,35.57
2022-12-17T12:05:53.423Z,33.30
2022-12-17T12:08:45.663Z,36.17
2022-12-17T12:11:41.530Z,36.80
2022-12-17T12:14:40.754Z,34.60
2022-12-17T12:17:50.770Z,35.17
2022-12-17T12:20:59.673Z,33.30
2022-12-17T12:23:56.959Z,34.40
2022-12-17T12:26:48.461Z,31.23
2022-12-17T12:29:46.948Z,31.47
2022-12-17T12:32:43.524Z,32.87
2022-12-17T12:35:35.106Z,30.77
2022-12-17T12:38:21.417Z,30.93
2022-12-17T12:41:14.482Z,29.80
2022-12-17T12:44:15.456Z,28.53
2022-12-17T12:47:11.320Z,28.10
2022-12-17T12:50:04.214Z,29.67
2022-12-17T12:52:55.866Z,29.90
2022-12-17T12:55:41.207Z,28.10
2022-12-17T12:58:44.115Z,28.50
2022-12-17T13:01:30.673Z,28.50
2022-12-17T13:04:19.716Z,30.73
2022-12-17T13:06:50.743Z,29.73
2022-12-17T13:09:35.426Z,28.57
2022-12-17T13:12:29.979Z,28.80
2022-12-17T13:15:12.142Z,30.00
2022-12-17T13:17:45.175Z,32.53
2022-12-17T13:20:27.364Z,28.83
2022-12-17T13:23:14.803Z,29.20
2022-12-17T13:25:43.328Z,27.87
2022-12-17T13:28:27.848Z,29.07
2022-12-17T13:31:03.268Z,28.47
2022-12-17T13:33:40.583Z,27.50
2022-12-17T13:36:19.201Z,29.33
2022-12-17T13:38:55.626Z,29.07
2022-12-17T13:41:29.535Z,28.67
2022-12-17T13:44:00.606Z,27.50
2022-12-17T13:46:30.374Z,26.63
2022-12-17T13:49:00.324Z,27.57
2022-12-17T13:51:33.114Z,28.17
2022-12-17T13:54:03.454Z,26.70
2022-12-17T13:56:33.679Z,26.43
2022-12-17T13:59:09.060Z,26.97
2022-12-17T14:01:46.787Z,28.03
2022-12-17T14:04:22.823Z,27.67
2022-12-17T14:06:54.021Z,25.53
2022-12-17T14:09:25.419Z,28.10
2022-12-17T14:12:11.588Z,28.90
2022-12-17T14:14:43.916Z,27.70
2022-12-17T14:17:19.634Z,27.03
2022-12-17T14:19:48.794Z,25.30
2022-12-17T14:22:28.801Z,25.70
2022-12-17T14:24:57.298Z,25.60
2022-12-17T14:27:28.900Z,25.50
2022-12-17T14:29:57.693Z,26.40
2022-12-17T14:32:31.580Z,25.27
2022-12-17T14:35:01.312Z,24.80
2022-12-17T14:37:31.581Z,24.90
2022-12-17T14:40:04.161Z,23.73
2022-12-17T14:42:37.118Z,23.13
2022-12-17T14:45:08.504Z,25.83
2022-12-17T14:47:38.285Z,24.13
2022-12-17T14:50:09.926Z,25.40
2022-12-17T14:52:42.239Z,26.60
2022-12-17T14:55:35.214Z,26.37
2022-12-17T14:58:21.353Z,24.83
2022-12-17T15:00:53.719Z,27.83
2022-12-17T15:03:25.990Z,28.00
2022-12-17T15:05:58.013Z,26.90
2022-12-17T15:08:29.088Z,24.60
2022-12-17T15:10:57.860Z,24.10
2022-12-17T15:13:26.339Z,23.70
2022-12-17T15:15:55.016Z,23.47
2022-12-17T15:18:26.140Z,24.60
2022-12-17T15:20:54.881Z,26.00
2022-12-17T15:23:24.701Z,26.20
2022-12-17T15:25:55.286Z,28.67
2022-12-17T15:28:24.289Z,27.00
2022-12-17T15:30:52.580Z,27.30
2022-12-17T15:33:20.747Z,28.13
2022-12-17T15:35:49.270Z,28.90
2022-12-17T15:38:17.610Z,34.30
2022-12-17T15:40:45.818Z,30.00
2022-12-17T15:43:15.972Z,28.63
2022-12-17T15:45:45.478Z,32.27
2022-12-17T15:48:15.591Z,31.37
2022-12-17T15:50:43.838Z,29.13
2022-12-17T15:53:12.088Z,29.80
2022-12-17T15:55:40.588Z,30.40
2022-12-17T15:58:10.644Z,28.97
2022-12-17T16:00:40.095Z,28.10
2022-12-17T16:03:08.533Z,27.97
2022-12-17T16:05:36.877Z,29.27
2022-12-17T16:08:05.349Z,30.10
2022-12-17T16:10:33.590Z,31.40
2022-12-17T16:13:01.758Z,32.20
2022-12-17T16:15:30.383Z,30.23
2022-12-17T16:18:00.000Z,29.50
2022-12-17T16:20:28.324Z,30.50
2022-12-17T16:22:56.505Z,31.70
2022-12-17T16:25:24.748Z,30.80
2022-12-17T16:27:53.018Z,32.23
2022-12-17T16:30:21.212Z,29.97
2022-12-17T16:32:49.280Z,30.90
2022-12-17T16:35:18.885Z,33.10
2022-12-17T16:37:46.968Z,33.80
2022-12-17T16:40:15.025Z,31.03
2022-12-17T16:42:43.147Z,31.47
2022-12-17T16:45:11.860Z,32.50
2022-12-17T16:47:39.969Z,32.70
2022-12-17T16:50:08.277Z,32.90
2022-12-17T16:52:37.668Z,33.13
2022-12-17T16:55:06.302Z,32.80
2022-12-17T16:57:34.343Z,32.07
2022-12-17T17:00:02.454Z,33.20
2022-12-17T17:02:30.689Z,33.23
2022-12-17T17:04:58.906Z,34.83
2022-12-17T17:07:27.005Z,33.30
2022-12-17T17:09:57.665Z,33.30
2022-12-17T17:12:26.939Z,34.50
2022-12-17T17:14:55.101Z,34.30
2022-12-17T17:17:55.963Z,33.73
2022-12-17T17:20:12.909Z,34.07
2022-12-17T17:22:41.140Z,34.20
2022-12-17T17:25:10.843Z,34.53
2022-12-17T17:27:38.943Z,34.03
2022-12-17T17:30:08.249Z,34.87
2022-12-17T17:32:36.420Z,38.27
2022-12-17T17:35:05.634Z,39.03
2022-12-17T17:37:33.763Z,38.33
2022-12-17T17:40:01.907Z,38.70
2022-12-17T17:42:31.508Z,38.17
2022-12-17T17:44:59.617Z,39.57
2022-12-17T17:47:30.077Z,38.67
2022-12-17T17:49:58.196Z,40.20
2022-12-17T17:52:26.299Z,39.70
2022-12-17T17:54:54.363Z,43.17
2022-12-17T17:57:22.441Z,40.70
2022-12-17T17:59:51.934Z,43.13
2022-12-17T18:02:20.366Z,40.90
2022-12-17T18:04:48.823Z,42.20
2022-12-17T18:07:25.191Z,39.87
2022-12-17T18:09:54.907Z,40.97
2022-12-17T18:12:41.152Z,40.13
2022-12-17T18:15:14.892Z,39.57
2022-12-17T18:17:45.511Z,39.80
2022-12-17T18:20:14.549Z,39.93
2022-12-17T18:22:43.316Z,40.37
2022-12-17T18:25:11.989Z,40.50
2022-12-17T18:27:42.785Z,42.90
2022-12-17T18:30:13.706Z,44.50
2022-12-17T18:32:43.382Z,42.10
2022-12-17T18:35:11.955Z,41.77
2022-12-17T18:37:40.601Z,41.63
2022-12-17T18:40:09.967Z,41.37
2022-12-17T18:42:55.739Z,41.33
2022-12-17T18:45:25.314Z,42.00
2022-12-17T18:47:53.575Z,45.90
2022-12-17T18:50:22.097Z,42.70
2022-12-17T18:52:50.342Z,44.13
2022-12-17T18:55:19.010Z,44.50
2022-12-17T18:57:47.235Z,49.73
2022-12-17T19:00:16.188Z,44.57
2022-12-17T19:02:45.927Z,45.50
2022-12-17T19:05:14.431Z,48.27
2022-12-17T19:07:42.580Z,49.70
2022-12-17T19:10:11.485Z,50.97
2022-12-17T19:12:39.657Z,50.07
2022-12-17T19:15:09.135Z,49.20
2022-12-17T19:17:37.447Z,52.80
2022-12-17T19:20:08.273Z,46.97
2022-12-17T19:22:36.463Z,46.37
2022-12-17T19:25:04.993Z,45.70
2022-12-17T19:27:33.261Z,45.27
2022-12-17T19:30:01.509Z,44.67
2022-12-17T19:32:29.671Z,44.60
2022-12-17T19:34:57.910Z,46.57
2022-12-17T19:37:27.668Z,46.77
2022-12-17T19:39:56.032Z,47.60
2022-12-17T19:42:33.455Z,49.50
2022-12-17T19:45:05.509Z,52.73
2022-12-17T19:47:33.863Z,51.20
2022-12-17T19:50:02.193Z,52.63
2022-12-17T19:52:32.059Z,52.50
2022-12-17T19:55:00.330Z,51.60
2022-12-17T19:57:28.801Z,51.07
2022-12-17T19:59:57.085Z,51.33
2022-12-17T20:02:30.996Z,50.13
2022-12-17T20:05:00.722Z,50.57
2022-12-17T20:07:28.817Z,48.93
2022-12-17T20:09:59.456Z,48.60
2022-12-17T20:12:28.708Z,48.80
2022-12-17T20:14:57.909Z,47.97
2022-12-17T20:17:26.533Z,48.40
2022-12-17T20:19:57.786Z,51.13
2022-12-17T20:22:27.608Z,49.90
2022-12-17T20:24:56.537Z,52.43
2022-12-17T20:27:26.754Z,54.90
2022-12-17T20:29:55.145Z,53.27
2022-12-17T20:32:23.865Z,54.67
2022-12-17T20:34:52.979Z,53.00
2022-12-17T20:37:21.801Z,53.50
2022-12-17T20:39:50.402Z,51.80
2022-12-17T20:42:19.106Z,53.70
2022-12-17T20:44:53.426Z,55.37
2022-12-17T20:47:22.594Z,51.93
2022-12-17T20:49:51.263Z,52.30
2022-12-17T20:52:19.874Z,54.63
2022-12-17T20:54:49.432Z,54.23
2022-12-17T20:57:18.033Z,53.27
2022-12-17T20:59:46.853Z,54.53
2022-12-17T21:02:17.659Z,53.13
2022-12-17T21:04:48.560Z,53.73
2022-12-17T21:07:17.052Z,54.40
2022-12-17T21:09:45.581Z,56.17
2022-12-17T21:12:14.082Z,57.83
2022-12-17T21:14:42.527Z,58.57
2022-12-17T21:17:11.095Z,58.30
2022-12-17T21:19:41.023Z,58.33
2022-12-17T21:22:10.194Z,58.30
2022-12-17T21:24:39.712Z,59.30
2022-12-17T21:27:14.267Z,61.20
2022-12-17T21:29:43.306Z,65.17
2022-12-17T21:32:12.108Z,62.40
2022-12-17T21:34:42.184Z,59.50
2022-12-17T21:37:11.370Z,59.30
2022-12-17T21:39:40.030Z,59.07
2022-12-17T21:42:26.288Z,59.47
2022-12-17T21:44:54.856Z,62.30
2022-12-17T21:47:23.970Z,59.77
2022-12-17T21:49:53.882Z,58.50
2022-12-17T21:52:22.461Z,58.43
2022-12-17T21:54:51.048Z,58.83
2022-12-17T21:57:19.616Z,58.53
2022-12-17T21:59:48.559Z,57.67
2022-12-17T22:02:17.831Z,57.07
2022-12-17T22:04:46.859Z,55.53
2022-12-17T22:07:21.701Z,57.67
2022-12-17T22:10:24.826Z,55.67
2022-12-17T22:13:09.674Z,57.77
2022-12-17T22:15:43.158Z,56.90
2022-12-17T22:18:16.755Z,59.20
2022-12-17T22:20:45.254Z,55.30
2022-12-17T22:23:15.531Z,56.10
2022-12-17T22:25:44.410Z,60.07
2022-12-17T22:28:13.007Z,58.50
2022-12-17T22:31:01.272Z,59.23
2022-12-17T22:33:51.189Z,58.60
2022-12-17T22:37:48.608Z,58.53
2022-12-17T22:42:40.407Z,58.93
2022-12-17T22:44:29.742Z,57.63
2022-12-17T22:45:09.723Z,57.60
2022-12-17T22:47:39.982Z,59.10
2022-12-17T22:50:08.850Z,57.57
2022-12-17T22:52:37.900Z,58.87
2022-12-17T22:55:08.728Z,59.90
2022-12-17T22:57:38.674Z,63.47
2022-12-17T23:00:11.074Z,67.60
2022-12-17T23:02:39.654Z,65.57
2022-12-17T23:05:08.446Z,69.07
2022-12-17T23:07:37.036Z,67.00
2022-12-17T23:10:05.885Z,62.90
2022-12-17T23:12:55.221Z,64.00
2022-12-17T23:15:25.730Z,62.50
2022-12-17T23:17:54.851Z,60.63
2022-12-17T23:20:23.717Z,61.10
2022-12-17T23:22:52.233Z,61.60
2022-12-17T23:25:20.799Z,64.20
2022-12-17T23:27:50.754Z,67.77
2022-12-17T23:30:20.937Z,64.60
2022-12-17T23:32:49.716Z,66.13
2022-12-17T23:35:18.471Z,67.37
2022-12-17T23:37:47.095Z,66.00
2022-12-17T23:40:15.843Z,65.27
2022-12-17T23:42:44.378Z,64.80
2022-12-17T23:45:14.345Z,67.43
2022-12-17T23:47:42.814Z,66.10
2022-12-17T23:50:12.321Z,69.40
2022-12-17T23:52:41.182Z,68.50
2022-12-17T23:55:11.584Z,70.77
2022-12-17T23:57:40.417Z,67.23
